Archival Weather

NSFA McMurdo Sound

NSFA McMurdo Sound, Antarctica (NZCM)

Report from: Thursday, September 21, 2023 8:55 PM UTC
Current time: Saturday, February 24, 2024 3:17 PM UTC

Current weather – Weather history – Daily summaries
Weather forecast

Present weatherLight snow
Temperature-12.7°C (9.1°F)
Wind chill-22.4°C (-8.3°F)
Dew point-16.0°C (3.2°F)
Winds 14 kts (7.2 m/s, 16.1 mph) East (80°)
Wind gusts 28 kts (14.4 m/s, 32.2 mph)
Peak wind 33 kts (17 m/s, 38 mph) East-Southeast (120°) at 20:05
Visibility4.3 mi. (7 km)
Clouds Few clouds 3,500 ft. (1,067 m)
Ceiling: Overcast 10,000 ft. (3,048 m)
Altimeter28.96 in.Hg (981 mB)
Precip. events Snow began 8:53 PM
Relative humidity76 %
Density altitude-5,742 ft. (-1,750 m)
Sea-level pressure108.1 kPa (1081 mB, 31.93 in.Hg)
Remarks Fully automated report
Automated weather observing station with precipitation discriminator
Pressure falling, then rising
Flight conditions Marginal Visual Meteorological Conditions
Raw dataNZCM 212055Z AUTO 08014G28KT 7000 -SN FEW035 OVC100 M13/M16 A2896 RMK AO2 PK WND 12033/2005 SNB2053 SLP812 T11271160 55002
An error has occurred. This application may no longer respond until reloaded. Reload 🗙